Aviation Digital Data Service (ADDS)

Output produced by METARs form (2313 UTC 23 May 2022)
found at http://www.aviationweather.gov/metar/data/
 
KTCC 231740Z 2318/2418 20015G25KT P6SM BKN200 
     FM232000 17016G26KT P6SM VCSH FEW040 BKN060 
     FM240200 09013KT P6SM VCTS SCT040CB OVC060 
     TEMPO 2404/2407 VRB30G45KT 4SM TSRA BLDU SCT019 BKN025CB 
     FM240700 06015G25KT 6SM -SHRA BKN015 
     FM241500 05011KT P6SM SCT025
       
KTCL 231734Z 2318/2418 31006KT P6SM VCSH BKN060 
     FM240100 03006KT P6SM OVC100 
     FM240600 VRB03KT 6SM BR OVC100 
     FM240900 00000KT 5SM BR OVC009 
     FM241300 12005KT P6SM OVC015 
     FM241600 14007KT P6SM BKN035 
     PROB30 2416/2418 4SM SHRA BR OVC015
       
TAF KTCM 232105Z 2321/2503 24006KT 9999 OVC060 620603 QNH3017INS 
     BECMG 2322/2323 24012KT 9999 VCSH BKN030 OVC040 QNH3015INS 
     BECMG 2402/2403 02006KT 9999 NSW BKN025 OVC040 QNH3015INS 
     BECMG 2409/2410 26006KT 9999 BKN015 QNH3014INS 
     BECMG 2412/2413 26006KT 9999 OVC009 QNH3010INS 
     BECMG 2417/2418 22006KT 9999 BKN015 OVC025 QNH3007INS 
     BECMG 2419/2420 22006KT 9999 BKN030 BKN060 QNH2999INS TX19/2322Z TN07/2413Z
       
KTCS 231734Z 2318/2418 20012G20KT P6SM SCT250 
     FM232000 25017G27KT P6SM SCT200 
     FM240300 30010G20KT 6SM FU SCT050
       
KTEB 232223Z 2322/2424 02006KT P6SM FEW150 BKN250 
     FM240100 VRB03KT P6SM SCT120 BKN200 
     FM240300 VRB03KT P6SM BKN100 
     FM241300 09005KT P6SM BKN100 
     FM241700 13008KT P6SM BKN100
       
KTEX 231740Z 2318/2418 27015G25KT P6SM SCT070 BKN250 
     FM240300 08003KT P6SM SCT100 BKN250 
     FM241500 27010KT P6SM FEW040 SCT200
       
TAF AMD KTIK 232156Z 2321/2423 06009KT 6000 -SHRA BR BKN006 OVC015 QNH3000INS 
     TEMPO 2321/2324 11012KT 3200 -TSRA FEW006CB 
     BECMG 2323/2324 11012KT 6000 -SHRA BR BKN015 QNH2999INS 
     BECMG 2404/2405 12010KT 8000 BR OVC008 QNH2999INS 
     BECMG 2407/2408 12012KT 6000 -SHRA BR OVC008 QNH2980INS 
     TEMPO 2412/2418 3200 -TSRA OVC005CB 
     BECMG 2417/2418 14010KT 8000 BR OVC012 QNH2967INS TX17/2417Z TN13/2322Z
       
KTIX 231753Z 2318/2418 14012G18KT P6SM FEW035 
     FM240200 16003KT P6SM FEW025 
     FM241400 12012KT P6SM SCT035 SCT250
       
KTLH 231720Z 2318/2418 24008KT P6SM SHRA VCTS BKN035CB 
     TEMPO 2318/2322 4SM TSRA BKN040CB 
     FM240000 24005KT P6SM BKN050 
     FM240900 VRB03KT 4SM BR BKN015 
     FM241400 15005KT P6SM SCT015 BKN035
       
KTMB 232055Z 2321/2418 11014G22KT P6SM SCT025 SCT050 
     FM240200 11009KT P6SM FEW020 SCT250 
     FM241400 12014KT P6SM SCT025
       
KTOI 231951Z 2320/2418 25007KT P6SM VCTS SCT015 BKN045CB 
     TEMPO 2320/2321 4SM SHRA BR OVC025 
     FM232100 24007KT P6SM VCSH SCT045 BKN100 
     FM240200 00000KT P6SM OVC100 
     FM241000 VRB03KT P6SM BKN007 OVC012 
     FM241400 12003KT P6SM SCT008 BKN100 
     PROB30 2417/2418 4SM SHRA BR OVC025
       
KTOL 231726Z 2318/2418 07012KT P6SM BKN035 
     FM232100 06009KT P6SM SCT050
       
KTOP 231721Z 2318/2418 10008KT P6SM BKN120 
     FM240400 09006KT P6SM VCSH BKN060 
     FM240800 08006KT 6SM -SHRA BR OVC030 
     FM241000 08007KT 4SM SHRA BR OVC020 
     FM241300 07008KT 3SM SHRA BR OVC010
       
KTPA 232101Z 2321/2424 25009KT P6SM SCT050 BKN250 
     FM232300 29007KT P6SM SCT030 BKN250 
     FM240300 11003KT P6SM BKN250 
     FM241400 16008KT P6SM FEW030 SCT250
       
KTPH 231740Z 2318/2418 34012G22KT P6SM SCT250 
     FM240500 36010KT P6SM FEW250
       
KTRI 232217Z 2322/2418 VRB04KT 3SM -RA BR SCT020 BKN050 
     FM240200 VRB03KT 2SM -RA BR OVC015 
     FM240900 28005KT 2SM BR OVC004 
     FM241200 04001KT 1SM BR OVC003 
     FM241400 07001KT 2SM BR OVC007 
     FM241500 08005KT P6SM OVC015
       
KTRK 231720Z 2318/2418 VRB03KT P6SM FEW250 
     FM231900 33009KT P6SM SCT250 
     FM240300 VRB03KT P6SM SKC
       
KTRM 231739Z 2318/2418 14008KT P6SM SKC 
     FM240300 33010KT P6SM SKC
       
KTTD 231720Z 2318/2418 29002KT P6SM BKN050 
     FM240300 31002KT P6SM OVC250 
     FM241200 00000KT P6SM OVC100 
     FM241500 00000KT P6SM FEW025 BKN050
       
KTTN 231734Z 2318/2418 35008KT P6SM SCT200 
     FM240000 VRB03KT P6SM BKN100 
     FM240600 VRB05KT P6SM OVC060 
     FM241400 09008KT P6SM BKN060
       
KTUL 232212Z 2322/2418 06006KT 6SM -RA VCTS FEW007 OVC011CB 
     TEMPO 2322/2324 3SM -TSRA BKN007CB 
     FM240300 VRB04KT P6SM VCSH OVC035 
     FM240900 VRB03KT 6SM -SHRA BKN022 
     PROB30 2409/2415 3SM TSRA OVC010CB 
     FM241500 12012KT 5SM SHRA BKN015 
     PROB30 2415/2418 3SM TSRA OVC010CB
       
KTUP 231720Z 2318/2418 02006KT P6SM OVC010 
     FM240000 05008KT P6SM OVC035 
     FM240500 07005KT P6SM OVC030 
     FM240800 09005KT 6SM BR OVC008 
     FM241400 14008KT P6SM OVC015 
     FM241700 18008KT P6SM BKN050
       
KTUS 231720Z 2318/2418 22006KT P6SM SKC 
     FM232000 27011G18KT P6SM FEW250 
     FM240400 21007KT P6SM SKC 
     FM240900 15007KT P6SM FEW250
       
KTVC 231720Z 2318/2418 03008KT P6SM SCT050 
     FM240100 00000KT P6SM SCT150 BKN250 
     FM241500 05005KT P6SM SCT120 BKN200
       
KTVL 231720Z 2318/2418 04008KT P6SM SCT250 
     FM240200 VRB03KT P6SM SKC
       
KTWF 231733Z 2318/2418 30011KT P6SM BKN090 
     FM240400 21011KT P6SM SCT200 
     FM241500 25015G25KT P6SM SCT200
       
KTXK 231722Z 2318/2418 07006KT P6SM OVC015 
     TEMPO 2318/2322 OVC030 
     FM232200 07006KT P6SM OVC030 
     FM240000 08005KT P6SM BKN035 
     FM240600 09005KT P6SM OVC010 
     FM240900 09005KT P6SM OVC005 
     FM241500 11007KT P6SM VCSH OVC015
       
KTYR 231856Z 2319/2418 08006KT P6SM SCT030 
     FM240300 10007KT P6SM OVC025 
     FM240900 13007KT P6SM VCTS OVC008CB 
     FM241500 14010KT 3SM -TSRA BR OVC010CB
       
KTYS 232210Z 2322/2418 34007KT P6SM -RA SCT008 BKN015 
     FM240100 03004KT 5SM BR OVC011 
     FM240700 00000KT 2SM BR OVC003 
     FM241200 34003KT 3SM BR OVC007 
     FM241300 23001KT 4SM BR OVC007 
     FM241500 04004KT P6SM BKN020 
     FM241600 04004KT P6SM BKN040